Milwaukee, Wisconsin
Traffic Map
Current Weather Conditions
Milwaukee, Wisconsin
Overcast Drizzle
Overcast
15°
Feels Like: 15°
Wind Chill: 15° Ceiling: 3300
Heat Index: 15° Visibility: 5mi
Dew Point: 14° Wind: 12mph
Humidity: 96% Direction: 20° (NNE)
Pressure: 29.95in Gusts: 0mph
Raw Report DataKMKE 200018Z 02010KT 5SM -DZ BR FEW008 SCT016 OVC033 15/14 A2995 RMK AO2 DZB12 P0000 T01500144
Traffic Incident Summary
Active as of:
Severity:
Category:
InformationThere was an issue retrieving the traffic information for this location. Please try a different location or try again shortly.
Advertisements